sensor_id;sensor_type;location;lat;lon;timestamp;pressure;altitude;pressure_sealevel;temperature;humidity
43217;BME280;60511;42.686;23.300;2023-02-19T07:25:00;95160.50;;;20.53;51.94
43217;BME280;60511;42.686;23.300;2023-02-19T07:27:01;95107.09;;;20.34;52.49
43217;BME280;60511;42.686;23.300;2023-02-19T07:29:02;95144.66;;;20.69;51.43
43217;BME280;60511;42.686;23.300;2023-02-19T07:31:03;95141.72;;;20.62;54.47
43217;BME280;60511;42.686;23.300;2023-02-19T07:33:04;95105.63;;;20.54;52.09
43217;BME280;60511;42.686;23.300;2023-02-19T07:35:04;95074.69;;;20.39;52.71
43217;BME280;60511;42.686;23.300;2023-02-19T07:37:05;95127.56;;;20.74;53.43
43217;BME280;60511;42.686;23.300;2023-02-19T07:39:05;95116.53;;;20.66;52.92
43217;BME280;60511;42.686;23.300;2023-02-19T07:41:06;95135.41;;;20.87;54.40
43217;BME280;60511;42.686;23.300;2023-02-19T07:43:06;95094.56;;;20.56;54.52
43217;BME280;60511;42.686;23.300;2023-02-19T07:45:07;95133.97;;;20.99;51.17
43217;BME280;60511;42.686;23.300;2023-02-19T07:47:07;95121.09;;;20.75;54.90
43217;BME280;60511;42.686;23.300;2023-02-19T07:49:07;95134.63;;;20.87;54.12
43217;BME280;60511;42.686;23.300;2023-02-19T07:51:12;95123.28;;;21.11;53.28
43217;BME280;60511;42.686;23.300;2023-02-19T07:53:12;95135.41;;;20.87;54.01
43217;BME280;60511;42.686;23.300;2023-02-19T07:55:13;95117.44;;;21.09;52.52
43217;BME280;60511;42.686;23.300;2023-02-19T07:57:14;95105.53;;;21.10;53.40
43217;BME280;60511;42.686;23.300;2023-02-19T07:59:14;95113.97;;;21.09;54.43
43217;BME280;60511;42.686;23.300;2023-02-19T08:01:20;95101.38;;;21.21;54.88
43217;BME280;60511;42.686;23.300;2023-02-19T08:03:39;95141.81;;;21.13;53.15
43217;BME280;60511;42.686;23.300;2023-02-19T08:05:40;95121.31;;;21.20;51.69
43217;BME280;60511;42.686;23.300;2023-02-19T08:07:41;95093.13;;;20.97;54.58
43217;BME280;60511;42.686;23.300;2023-02-19T08:09:41;95105.44;;;20.98;55.84
43217;BME280;60511;42.686;23.300;2023-02-19T08:11:42;95073.22;;;20.89;53.45
43217;BME280;60511;42.686;23.300;2023-02-19T08:14:00;95097.34;;;21.06;54.67
43217;BME280;60511;42.686;23.300;2023-02-19T08:18:01;95120.47;;;21.28;55.30
43217;BME280;60511;42.686;23.300;2023-02-19T08:20:02;95129.94;;;21.43;52.26
43217;BME280;60511;42.686;23.300;2023-02-19T08:22:02;95121.84;;;21.43;53.43
43217;BME280;60511;42.686;23.300;2023-02-19T08:24:03;95067.47;;;20.99;54.11
43217;BME280;60511;42.686;23.300;2023-02-19T08:26:04;95061.47;;;20.94;53.70
43217;BME280;60511;42.686;23.300;2023-02-19T08:28:05;95103.78;;;21.14;54.90
43217;BME280;60511;42.686;23.300;2023-02-19T08:30:07;95076.00;;;21.22;51.59
43217;BME280;60511;42.686;23.300;2023-02-19T08:32:08;95114.78;;;21.30;54.61
43217;BME280;60511;42.686;23.300;2023-02-19T08:34:08;95120.31;;;21.34;53.83
43217;BME280;60511;42.686;23.300;2023-02-19T08:36:09;95078.63;;;21.10;49.41
43217;BME280;60511;42.686;23.300;2023-02-19T08:38:11;95122.91;;;20.92;40.21
43217;BME280;60511;42.686;23.300;2023-02-19T08:40:12;95086.63;;;20.59;36.75
43217;BME280;60511;42.686;23.300;2023-02-19T08:42:12;95083.16;;;20.59;36.73
43217;BME280;60511;42.686;23.300;2023-02-19T08:44:13;95121.72;;;20.72;36.26
43217;BME280;60511;42.686;23.300;2023-02-19T08:46:13;95079.34;;;20.69;37.44
43217;BME280;60511;42.686;23.300;2023-02-19T08:48:14;95073.41;;;20.45;33.69
43217;BME280;60511;42.686;23.300;2023-02-19T08:50:14;95067.03;;;20.03;32.45
43217;BME280;60511;42.686;23.300;2023-02-19T08:52:15;95110.44;;;20.31;32.23
43217;BME280;60511;42.686;23.300;2023-02-19T08:54:15;95091.00;;;20.25;32.40
43217;BME280;60511;42.686;23.300;2023-02-19T08:56:15;95058.34;;;19.97;31.65
43217;BME280;60511;42.686;23.300;2023-02-19T08:58:17;95084.84;;;20.25;31.42
43217;BME280;60511;42.686;23.300;2023-02-19T09:00:17;94980.19;;;19.55;30.79
43217;BME280;60511;42.686;23.300;2023-02-19T09:02:18;95061.75;;;20.24;31.77
43217;BME280;60511;42.686;23.300;2023-02-19T09:04:18;94973.06;;;19.77;32.14
43217;BME280;60511;42.686;23.300;2023-02-19T09:06:19;95108.31;;;20.63;30.34
43217;BME280;60511;42.686;23.300;2023-02-19T09:08:20;95085.56;;;20.52;30.67
43217;BME280;60511;42.686;23.300;2023-02-19T09:10:20;95068.72;;;20.72;31.94
43217;BME280;60511;42.686;23.300;2023-02-19T09:12:20;95057.97;;;20.63;31.05
43217;BME280;60511;42.686;23.300;2023-02-19T09:14:22;95048.25;;;20.80;30.89
43217;BME280;60511;42.686;23.300;2023-02-19T09:16:22;95062.91;;;20.61;29.16
43217;BME280;60511;42.686;23.300;2023-02-19T09:18:24;95069.25;;;20.48;30.07
43217;BME280;60511;42.686;23.300;2023-02-19T09:20:24;95047.50;;;20.32;29.51
43217;BME280;60511;42.686;23.300;2023-02-19T09:22:25;95046.09;;;20.26;29.97
43217;BME280;60511;42.686;23.300;2023-02-19T09:24:25;95059.94;;;20.45;29.89
43217;BME280;60511;42.686;23.300;2023-02-19T09:26:25;95007.78;;;20.38;29.91
43217;BME280;60511;42.686;23.300;2023-02-19T09:28:26;95059.34;;;20.78;30.49
43217;BME280;60511;42.686;23.300;2023-02-19T09:30:27;95059.44;;;20.52;29.65
43217;BME280;60511;42.686;23.300;2023-02-19T09:32:31;95059.88;;;20.63;29.75
43217;BME280;60511;42.686;23.300;2023-02-19T09:34:31;95045.09;;;20.78;28.89
43217;BME280;60511;42.686;23.300;2023-02-19T09:36:32;95032.16;;;20.71;28.77
43217;BME280;60511;42.686;23.300;2023-02-19T09:38:32;95021.91;;;20.64;29.65
43217;BME280;60511;42.686;23.300;2023-02-19T09:40:34;95002.94;;;20.61;29.66
43217;BME280;60511;42.686;23.300;2023-02-19T09:42:39;95038.16;;;20.77;28.87
43217;BME280;60511;42.686;23.300;2023-02-19T09:44:45;95051.34;;;20.61;28.33
43217;BME280;60511;42.686;23.300;2023-02-19T09:46:49;95051.06;;;20.45;29.23
43217;BME280;60511;42.686;23.300;2023-02-19T09:48:51;95051.84;;;20.54;28.98
43217;BME280;60511;42.686;23.300;2023-02-19T09:50:52;95051.06;;;20.45;28.94
43217;BME280;60511;42.686;23.300;2023-02-19T09:52:58;95055.97;;;20.04;28.26
43217;BME280;60511;42.686;23.300;2023-02-19T09:55:09;94922.84;;;19.60;28.53
43217;BME280;60511;42.686;23.300;2023-02-19T09:57:15;95036.47;;;20.25;28.01
43217;BME280;60511;42.686;23.300;2023-02-19T09:59:23;95035.00;;;20.36;28.71
43217;BME280;60511;42.686;23.300;2023-02-19T10:01:27;95014.81;;;20.51;28.22
43217;BME280;60511;42.686;23.300;2023-02-19T10:03:36;94960.13;;;20.47;28.44
43217;BME280;60511;42.686;23.300;2023-02-19T10:07:42;94978.78;;;20.14;28.02
43217;BME280;60511;42.686;23.300;2023-02-19T10:09:52;95009.91;;;20.53;28.08
43217;BME280;60511;42.686;23.300;2023-02-19T10:11:57;94992.97;;;20.61;27.21
43217;BME280;60511;42.686;23.300;2023-02-19T10:16:06;94951.59;;;20.45;27.68
43217;BME280;60511;42.686;23.300;2023-02-19T10:18:10;94976.59;;;20.75;27.26
43217;BME280;60511;42.686;23.300;2023-02-19T10:20:13;94984.53;;;20.72;26.76
43217;BME280;60511;42.686;23.300;2023-02-19T10:22:14;94968.53;;;20.45;26.89
43217;BME280;60511;42.686;23.300;2023-02-19T10:24:26;94966.28;;;20.18;27.22
43217;BME280;60511;42.686;23.300;2023-02-19T10:26:28;94958.78;;;20.32;27.26
43217;BME280;60511;42.686;23.300;2023-02-19T10:28:34;94937.88;;;20.38;27.55
43217;BME280;60511;42.686;23.300;2023-02-19T10:30:35;94964.66;;;20.55;26.99
43217;BME280;60511;42.686;23.300;2023-02-19T10:32:36;94852.53;;;19.66;26.28
43217;BME280;60511;42.686;23.300;2023-02-19T10:34:41;94882.63;;;19.90;27.08
43217;BME280;60511;42.686;23.300;2023-02-19T10:36:42;94950.09;;;20.65;26.83
43217;BME280;60511;42.686;23.300;2023-02-19T10:38:46;94941.50;;;20.72;26.93
43217;BME280;60511;42.686;23.300;2023-02-19T10:40:47;94912.06;;;20.45;26.78
43217;BME280;60511;42.686;23.300;2023-02-19T10:42:50;94932.25;;;20.81;26.89
43217;BME280;60511;42.686;23.300;2023-02-19T10:44:55;94929.50;;;21.11;27.29
43217;BME280;60511;42.686;23.300;2023-02-19T10:46:58;94771.06;;;20.34;27.53
43217;BME280;60511;42.686;23.300;2023-02-19T10:49:25;94887.16;;;21.33;27.06
43217;BME280;60511;42.686;23.300;2023-02-19T10:51:35;94909.47;;;21.54;27.63
43217;BME280;60511;42.686;23.300;2023-02-19T10:53:45;94871.72;;;21.42;27.74
43217;BME280;60511;42.686;23.300;2023-02-19T10:55:46;94870.84;;;21.50;27.63
43217;BME280;60511;42.686;23.300;2023-02-19T10:57:47;94800.28;;;20.99;27.96
43217;BME280;60511;42.686;23.300;2023-02-19T10:59:51;94902.09;;;21.76;28.00
43217;BME280;60511;42.686;23.300;2023-02-19T11:02:03;94816.81;;;21.34;28.44
43217;BME280;60511;42.686;23.300;2023-02-19T11:04:16;94898.50;;;21.84;28.46
43217;BME280;60511;42.686;23.300;2023-02-19T11:06:19;94812.81;;;21.40;28.67
43217;BME280;60511;42.686;23.300;2023-02-19T11:08:20;94884.81;;;21.89;28.55
43217;BME280;60511;42.686;23.300;2023-02-19T11:12:27;94869.22;;;21.95;29.19
43217;BME280;60511;42.686;23.300;2023-02-19T11:14:29;94846.66;;;21.87;28.97
43217;BME280;60511;42.686;23.300;2023-02-19T11:16:43;94864.81;;;22.02;29.24
43217;BME280;60511;42.686;23.300;2023-02-19T11:18:52;94838.00;;;21.94;29.33
43217;BME280;60511;42.686;23.300;2023-02-19T11:21:03;94847.31;;;22.08;29.03
43217;BME280;60511;42.686;23.300;2023-02-19T11:23:15;94827.78;;;21.99;29.47
43217;BME280;60511;42.686;23.300;2023-02-19T11:25:20;94827.00;;;21.99;29.44
43217;BME280;60511;42.686;23.300;2023-02-19T11:27:24;94830.69;;;22.06;28.95
43217;BME280;60511;42.686;23.300;2023-02-19T11:29:25;94816.56;;;21.97;29.65
43217;BME280;60511;42.686;23.300;2023-02-19T11:31:29;94822.25;;;22.08;29.62
43217;BME280;60511;42.686;23.300;2023-02-19T11:33:31;94830.69;;;22.06;29.64
43217;BME280;60511;42.686;23.300;2023-02-19T11:35:31;94806.41;;;22.06;29.59
43217;BME280;60511;42.686;23.300;2023-02-19T11:37:31;94740.56;;;21.67;29.20
43217;BME280;60511;42.686;23.300;2023-02-19T11:39:32;94824.31;;;22.23;29.62
43217;BME280;60511;42.686;23.300;2023-02-19T11:42:01;94775.78;;;21.99;29.40
43217;BME280;60511;42.686;23.300;2023-02-19T11:46:20;94813.38;;;22.20;29.61
43217;BME280;60511;42.686;23.300;2023-02-19T11:51:03;94776.09;;;22.10;29.69
43217;BME280;60511;42.686;23.300;2023-02-19T11:53:26;94800.56;;;22.29;29.55
43217;BME280;60511;42.686;23.300;2023-02-19T11:57:43;94794.06;;;22.30;29.34
43217;BME280;60511;42.686;23.300;2023-02-19T11:59:50;94790.94;;;22.28;29.79
43217;BME280;60511;42.686;23.300;2023-02-19T12:02:16;94765.53;;;22.17;29.95
43217;BME280;60511;42.686;23.300;2023-02-19T12:09:24;94771.13;;;22.36;30.03
43217;BME280;60511;42.686;23.300;2023-02-19T12:14:16;94768.09;;;22.38;29.89
43217;BME280;60511;42.686;23.300;2023-02-19T12:44:04;94702.78;;;22.44;29.89
43217;BME280;60511;42.686;23.300;2023-02-19T12:46:15;94664.41;;;22.23;29.91
43217;BME280;60511;42.686;23.300;2023-02-19T12:50:30;94688.94;;;22.46;29.82
43217;BME280;60511;42.686;23.300;2023-02-19T12:52:36;94687.03;;;22.46;29.89
43217;BME280;60511;42.686;23.300;2023-02-19T12:54:41;94685.47;;;22.45;29.89
43217;BME280;60511;42.686;23.300;2023-02-19T12:56:49;94675.91;;;22.48;29.57
43217;BME280;60511;42.686;23.300;2023-02-19T12:58:54;94664.59;;;22.42;30.21
43217;BME280;60511;42.686;23.300;2023-02-19T13:00:57;94673.22;;;22.48;30.07
43217;BME280;60511;42.686;23.300;2023-02-19T13:08:06;94674.09;;;22.52;32.80
43217;BME280;60511;42.686;23.300;2023-02-19T13:12:23;94661.16;;;22.58;34.61
43217;BME280;60511;42.686;23.300;2023-02-19T13:14:36;94653.94;;;22.62;34.39
43217;BME280;60511;42.686;23.300;2023-02-19T13:16:38;94643.66;;;22.52;34.37
43217;BME280;60511;42.686;23.300;2023-02-19T13:18:55;94630.72;;;22.45;33.90
43217;BME280;60511;42.686;23.300;2023-02-19T13:20:58;94640.94;;;22.52;34.09
43217;BME280;60511;42.686;23.300;2023-02-19T13:23:10;94562.63;;;22.04;33.62
43217;BME280;60511;42.686;23.300;2023-02-19T13:25:47;94636.50;;;22.59;33.26
43217;BME280;60511;42.686;23.300;2023-02-19T13:28:31;94624.84;;;22.55;34.32
43217;BME280;60511;42.686;23.300;2023-02-19T13:30:51;94548.91;;;22.09;33.26
43217;BME280;60511;42.686;23.300;2023-02-19T13:37:21;94614.91;;;22.59;33.66
43217;BME280;60511;42.686;23.300;2023-02-19T13:39:22;94549.19;;;22.20;33.78
43217;BME280;60511;42.686;23.300;2023-02-19T13:41:31;94589.16;;;22.46;33.57
43217;BME280;60511;42.686;23.300;2023-02-19T13:43:35;94581.50;;;22.32;33.99
43217;BME280;60511;42.686;23.300;2023-02-19T13:45:42;94611.53;;;22.62;33.90
43217;BME280;60511;42.686;23.300;2023-02-19T13:50:04;94611.00;;;22.57;33.37
43217;BME280;60511;42.686;23.300;2023-02-19T14:00:48;94606.47;;;22.61;37.64
43217;BME280;60511;42.686;23.300;2023-02-19T14:02:49;94582.72;;;22.51;36.99
43217;BME280;60511;42.686;23.300;2023-02-19T14:15:50;94572.72;;;22.35;34.73
43217;BME280;60511;42.686;23.300;2023-02-19T14:17:51;94589.59;;;22.48;34.31
43217;BME280;60511;42.686;23.300;2023-02-19T14:19:58;94587.00;;;22.52;34.02
43217;BME280;60511;42.686;23.300;2023-02-19T14:21:59;94567.59;;;22.46;33.99
43217;BME280;60511;42.686;23.300;2023-02-19T14:24:00;94568.38;;;22.46;33.91
43217;BME280;60511;42.686;23.300;2023-02-19T14:26:05;94587.06;;;22.55;33.58
43217;BME280;60511;42.686;23.300;2023-02-19T14:30:11;94567.69;;;22.50;33.65
43217;BME280;60511;42.686;23.300;2023-02-19T14:32:18;94547.56;;;22.47;33.44
43217;BME280;60511;42.686;23.300;2023-02-19T14:34:21;94570.97;;;22.59;33.58
43217;BME280;60511;42.686;23.300;2023-02-19T14:36:34;94569.88;;;22.60;32.90
43217;BME280;60511;42.686;23.300;2023-02-19T14:38:51;94587.94;;;22.59;33.10
43217;BME280;60511;42.686;23.300;2023-02-19T14:40:53;94582.09;;;22.57;33.12
43217;BME280;60511;42.686;23.300;2023-02-19T14:42:55;94554.44;;;22.44;33.18
43217;BME280;60511;42.686;23.300;2023-02-19T14:44:59;94564.38;;;22.56;32.78
43217;BME280;60511;42.686;23.300;2023-02-19T14:47:13;94552.44;;;22.57;32.93
43217;BME280;60511;42.686;23.300;2023-02-19T14:49:25;94547.84;;;22.58;32.68
43217;BME280;60511;42.686;23.300;2023-02-19T14:51:29;94547.41;;;22.56;32.90
43217;BME280;60511;42.686;23.300;2023-02-19T14:53:35;94490.91;;;22.15;32.99
43217;BME280;60511;42.686;23.300;2023-02-19T14:55:37;94544.72;;;22.56;33.00
43217;BME280;60511;42.686;23.300;2023-02-19T14:57:43;94499.28;;;22.26;32.73
43217;BME280;60511;42.686;23.300;2023-02-19T15:02:02;94545.75;;;22.51;32.80
43217;BME280;60511;42.686;23.300;2023-02-19T15:04:04;94517.81;;;22.27;32.91
43217;BME280;60511;42.686;23.300;2023-02-19T15:06:10;94553.84;;;22.51;32.80
43217;BME280;60511;42.686;23.300;2023-02-19T15:08:17;94558.00;;;22.49;32.83
43217;BME280;60511;42.686;23.300;2023-02-19T15:10:21;94502.34;;;22.24;32.93
43217;BME280;60511;42.686;23.300;2023-02-19T15:12:24;94514.09;;;22.32;32.27
43217;BME280;60511;42.686;23.300;2023-02-19T15:14:25;94449.16;;;21.93;32.50
43217;BME280;60511;42.686;23.300;2023-02-19T15:16:31;94503.47;;;22.23;32.21
43217;BME280;60511;42.686;23.300;2023-02-19T15:18:33;94546.19;;;22.53;32.62
43217;BME280;60511;42.686;23.300;2023-02-19T15:20:36;94534.03;;;22.43;32.15
43217;BME280;60511;42.686;23.300;2023-02-19T15:22:39;94530.59;;;22.31;32.11
43217;BME280;60511;42.686;23.300;2023-02-19T15:24:43;94518.94;;;22.26;32.06
43217;BME280;60511;42.686;23.300;2023-02-19T15:26:50;94549.59;;;22.50;31.74
43217;BME280;60511;42.686;23.300;2023-02-19T15:28:57;94527.75;;;22.39;32.16
43217;BME280;60511;42.686;23.300;2023-02-19T15:32:59;94551.50;;;22.50;32.08
43217;BME280;60511;42.686;23.300;2023-02-19T15:35:02;94543.84;;;22.36;31.86
43217;BME280;60511;42.686;23.300;2023-02-19T15:37:05;94510.91;;;22.14;31.90
43217;BME280;60511;42.686;23.300;2023-02-19T15:39:16;94487.16;;;22.04;31.79
43217;BME280;60511;42.686;23.300;2023-02-19T15:41:22;94477.59;;;21.91;31.49
43217;BME280;60511;42.686;23.300;2023-02-19T15:43:43;94551.16;;;22.35;31.54
43217;BME280;60511;42.686;23.300;2023-02-19T15:45:51;94586.56;;;22.50;31.50
43217;BME280;60511;42.686;23.300;2023-02-19T15:52:25;94549.47;;;22.31;31.53
43217;BME280;60511;42.686;23.300;2023-02-19T15:54:31;94550.66;;;22.17;31.71
43217;BME280;60511;42.686;23.300;2023-02-19T15:56:35;94571.75;;;22.27;31.66
43217;BME280;60511;42.686;23.300;2023-02-19T15:58:50;94596.91;;;22.48;31.93
43217;BME280;60511;42.686;23.300;2023-02-19T16:00:56;94583.25;;;22.40;31.58
43217;BME280;60511;42.686;23.300;2023-02-19T16:02:57;94547.53;;;22.15;31.89
43217;BME280;60511;42.686;23.300;2023-02-19T16:04:58;94596.47;;;22.45;31.31
43217;BME280;60511;42.686;23.300;2023-02-19T16:07:02;94567.34;;;22.23;31.40
43217;BME280;60511;42.686;23.300;2023-02-19T16:09:04;94541.59;;;22.10;31.83
43217;BME280;60511;42.686;23.300;2023-02-19T16:11:24;94587.31;;;22.34;31.79
43217;BME280;60511;42.686;23.300;2023-02-19T16:13:29;94613.78;;;22.44;31.70
43217;BME280;60511;42.686;23.300;2023-02-19T16:15:31;94608.38;;;22.44;31.82
43217;BME280;60511;42.686;23.300;2023-02-19T16:17:32;94609.53;;;22.43;31.36
43217;BME280;60511;42.686;23.300;2023-02-19T16:19:45;94597.59;;;22.44;31.63
43217;BME280;60511;42.686;23.300;2023-02-19T16:21:47;94611.84;;;22.45;31.29
43217;BME280;60511;42.686;23.300;2023-02-19T16:23:52;94551.94;;;22.07;31.36
43217;BME280;60511;42.686;23.300;2023-02-19T16:25:59;94612.22;;;22.43;31.67
43217;BME280;60511;42.686;23.300;2023-02-19T16:28:09;94610.75;;;22.46;31.78
43217;BME280;60511;42.686;23.300;2023-02-19T16:32:24;94621.09;;;22.44;31.17
43217;BME280;60511;42.686;23.300;2023-02-19T16:36:35;94626.94;;;22.46;31.15
43217;BME280;60511;42.686;23.300;2023-02-19T16:38:38;94613.84;;;22.32;31.04
43217;BME280;60511;42.686;23.300;2023-02-19T16:44:48;94609.94;;;22.30;31.47
43217;BME280;60511;42.686;23.300;2023-02-19T16:46:50;94627.44;;;22.36;31.86
43217;BME280;60511;42.686;23.300;2023-02-19T16:48:51;94649.63;;;22.45;32.16
43217;BME280;60511;42.686;23.300;2023-02-19T16:50:53;94649.19;;;22.43;31.80
43217;BME280;60511;42.686;23.300;2023-02-19T16:52:54;94641.88;;;22.43;31.48
43217;BME280;60511;42.686;23.300;2023-02-19T16:54:55;94640.47;;;22.34;31.53
43217;BME280;60511;42.686;23.300;2023-02-19T16:56:55;94643.16;;;22.34;31.35
43217;BME280;60511;42.686;23.300;2023-02-19T16:58:56;94664.59;;;22.42;31.31
43217;BME280;60511;42.686;23.300;2023-02-19T17:00:57;94626.44;;;22.28;31.41
43217;BME280;60511;42.686;23.300;2023-02-19T17:02:58;94646.91;;;22.45;31.76
43217;BME280;60511;42.686;23.300;2023-02-19T17:05:01;94656.16;;;22.44;31.79
43217;BME280;60511;42.686;23.300;2023-02-19T17:07:02;94640.03;;;22.32;31.90
43217;BME280;60511;42.686;23.300;2023-02-19T17:09:03;94640.91;;;22.36;31.51
43217;BME280;60511;42.686;23.300;2023-02-19T17:11:09;94646.81;;;22.25;32.22
43217;BME280;60511;42.686;23.300;2023-02-19T17:13:09;94662.75;;;22.46;31.76
43217;BME280;60511;42.686;23.300;2023-02-19T17:15:11;94655.00;;;22.45;31.31
43217;BME280;60511;42.686;23.300;2023-02-19T17:17:11;94665.78;;;22.45;31.37
43217;BME280;60511;42.686;23.300;2023-02-19T17:19:15;94646.44;;;22.27;31.70
43217;BME280;60511;42.686;23.300;2023-02-19T17:21:21;94664.41;;;22.51;31.42
43217;BME280;60511;42.686;23.300;2023-02-19T17:23:22;94630.19;;;22.23;31.36
43217;BME280;60511;42.686;23.300;2023-02-19T17:25:22;94677.13;;;22.51;31.70
43217;BME280;60511;42.686;23.300;2023-02-19T17:27:22;94622.91;;;22.12;31.29
43217;BME280;60511;42.686;23.300;2023-02-19T17:29:23;94678.84;;;22.43;31.56
43217;BME280;60511;42.686;23.300;2023-02-19T17:31:23;94639.31;;;22.06;31.25
43217;BME280;60511;42.686;23.300;2023-02-19T17:33:24;94646.47;;;22.15;31.39
43217;BME280;60511;42.686;23.300;2023-02-19T17:35:24;94649.84;;;22.12;30.66
43217;BME280;60511;42.686;23.300;2023-02-19T17:37:25;94658.94;;;22.19;31.91
43217;BME280;60511;42.686;23.300;2023-02-19T17:39:25;94679.66;;;22.31;31.02
43217;BME280;60511;42.686;23.300;2023-02-19T17:41:26;94701.66;;;22.45;31.36
43217;BME280;60511;42.686;23.300;2023-02-19T17:43:27;94686.84;;;22.39;30.98
43217;BME280;60511;42.686;23.300;2023-02-19T17:45:27;94663.97;;;22.21;30.74
43217;BME280;60511;42.686;23.300;2023-02-19T17:47:28;94658.22;;;22.22;30.91
43217;BME280;60511;42.686;23.300;2023-02-19T17:49:29;94666.56;;;22.30;31.23
43217;BME280;60511;42.686;23.300;2023-02-19T17:51:30;94705.13;;;22.46;30.96
43217;BME280;60511;42.686;23.300;2023-02-19T17:53:30;94710.53;;;22.46;31.26
43217;BME280;60511;42.686;23.300;2023-02-19T17:55:30;94689.44;;;22.36;31.28
43217;BME280;60511;42.686;23.300;2023-02-19T17:57:32;94704.69;;;22.44;31.00
43217;BME280;60511;42.686;23.300;2023-02-19T17:59:33;94685.53;;;22.33;30.94
43217;BME280;60511;42.686;23.300;2023-02-19T18:01:33;94691.59;;;22.30;30.86
43217;BME280;60511;42.686;23.300;2023-02-19T18:03:34;94664.66;;;22.18;31.33
43217;BME280;60511;42.686;23.300;2023-02-19T18:05:34;94709.81;;;22.49;30.99
43217;BME280;60511;42.686;23.300;2023-02-19T18:07:35;94692.28;;;22.27;30.84
43217;BME280;60511;42.686;23.300;2023-02-19T18:09:35;94708.22;;;22.32;31.02
43217;BME280;60511;42.686;23.300;2023-02-19T18:11:37;94707.72;;;22.42;31.37
43217;BME280;60511;42.686;23.300;2023-02-19T18:13:37;94736.91;;;22.53;30.84
43217;BME280;60511;42.686;23.300;2023-02-19T18:15:38;94737.50;;;22.46;30.99
43217;BME280;60511;42.686;23.300;2023-02-19T18:17:38;94711.16;;;22.27;31.03
43217;BME280;60511;42.686;23.300;2023-02-19T18:19:42;94599.41;;;21.56;30.82
43217;BME280;60511;42.686;23.300;2023-02-19T18:21:42;94753.44;;;22.51;31.17
43217;BME280;60511;42.686;23.300;2023-02-19T18:23:42;94734.97;;;22.53;30.80
43217;BME280;60511;42.686;23.300;2023-02-19T18:25:45;94712.84;;;22.32;30.86
43217;BME280;60511;42.686;23.300;2023-02-19T18:27:47;94748.03;;;22.51;30.90
43217;BME280;60511;42.686;23.300;2023-02-19T18:29:49;94701.25;;;22.19;30.41
43217;BME280;60511;42.686;23.300;2023-02-19T18:31:51;94744.44;;;22.47;30.86
43217;BME280;60511;42.686;23.300;2023-02-19T18:33:51;94763.44;;;22.51;31.05
43217;BME280;60511;42.686;23.300;2023-02-19T18:35:51;94762.22;;;22.48;31.06
43217;BME280;60511;42.686;23.300;2023-02-19T18:37:52;94736.22;;;22.27;31.02
43217;BME280;60511;42.686;23.300;2023-02-19T18:39:53;94775.44;;;22.53;30.78
43217;BME280;60511;42.686;23.300;2023-02-19T18:41:53;94763.09;;;22.52;30.35
43217;BME280;60511;42.686;23.300;2023-02-19T18:43:54;94655.94;;;21.80;30.81
43217;BME280;60511;42.686;23.300;2023-02-19T18:45:56;94726.34;;;22.19;30.92
43217;BME280;60511;42.686;23.300;2023-02-19T18:47:56;94767.28;;;22.50;31.07
43217;BME280;60511;42.686;23.300;2023-02-19T18:49:57;94776.47;;;22.49;31.08
43217;BME280;60511;42.686;23.300;2023-02-19T18:51:59;94774.56;;;22.49;30.91
43217;BME280;60511;42.686;23.300;2023-02-19T18:54:00;94746.31;;;22.31;30.89
43217;BME280;60511;42.686;23.300;2023-02-19T18:56:03;94771.41;;;22.47;31.28
43217;BME280;60511;42.686;23.300;2023-02-19T18:58:05;94787.13;;;22.57;31.32
43217;BME280;60511;42.686;23.300;2023-02-19T19:00:06;94786.69;;;22.55;31.08
43217;BME280;60511;42.686;23.300;2023-02-19T19:02:08;94776.03;;;22.46;31.03
43217;BME280;60511;42.686;23.300;2023-02-19T19:04:08;94803.75;;;22.59;30.79
43217;BME280;60511;42.686;23.300;2023-02-19T19:06:09;94788.84;;;22.50;31.25
43217;BME280;60511;42.686;23.300;2023-02-19T19:08:09;94812.22;;;22.58;31.21
43217;BME280;60511;42.686;23.300;2023-02-19T19:10:10;94757.88;;;22.19;31.01
43217;BME280;60511;42.686;23.300;2023-02-19T19:12:10;94790.88;;;22.40;30.60
43217;BME280;60511;42.686;23.300;2023-02-19T19:14:11;94782.84;;;22.28;31.17
43217;BME280;60511;42.686;23.300;2023-02-19T19:16:11;94777.44;;;22.28;30.87
43217;BME280;60511;42.686;23.300;2023-02-19T19:18:15;94824.56;;;22.59;31.02
43217;BME280;60511;42.686;23.300;2023-02-19T19:20:21;94815.34;;;22.60;31.03
43217;BME280;60511;42.686;23.300;2023-02-19T19:22:22;94809.63;;;22.49;30.95
43217;BME280;60511;42.686;23.300;2023-02-19T19:24:24;94818.31;;;22.42;31.01
43217;BME280;60511;42.686;23.300;2023-02-19T19:26:24;94828.63;;;22.53;30.66
43217;BME280;60511;42.686;23.300;2023-02-19T19:28:25;94802.25;;;22.34;30.93
43217;BME280;60511;42.686;23.300;2023-02-19T19:30:27;94793.28;;;22.17;30.96
43217;BME280;60511;42.686;23.300;2023-02-19T19:32:27;94848.88;;;22.46;30.95
43217;BME280;60511;42.686;23.300;2023-02-19T19:34:27;94817.19;;;22.31;30.96
43217;BME280;60511;42.686;23.300;2023-02-19T19:36:28;94814.06;;;22.29;31.10
43217;BME280;60511;42.686;23.300;2023-02-19T19:38:28;94828.53;;;22.37;31.21
43217;BME280;60511;42.686;23.300;2023-02-19T19:40:29;94846.72;;;22.52;30.80
43217;BME280;60511;42.686;23.300;2023-02-19T19:42:29;94780.13;;;22.16;30.92
43217;BME280;60511;42.686;23.300;2023-02-19T19:44:29;94838.66;;;22.40;30.70
43217;BME280;60511;42.686;23.300;2023-02-19T19:46:31;94838.06;;;22.46;30.91
43217;BME280;60511;42.686;23.300;2023-02-19T19:48:31;94818.22;;;22.26;31.04
43217;BME280;60511;42.686;23.300;2023-02-19T19:50:32;94841.91;;;22.45;30.79
43217;BME280;60511;42.686;23.300;2023-02-19T19:52:32;94796.97;;;22.13;30.61
43217;BME280;60511;42.686;23.300;2023-02-19T19:54:33;94821.63;;;22.23;30.97
43217;BME280;60511;42.686;23.300;2023-02-19T19:56:41;94848.31;;;22.41;30.80